Time;durP1;ratioP1;P1;durP2;ratioP2;P2;SDS_P1;SDS_P2;PMS_P1;PMS_P2;Temp;Humidity;BMP_temperature;BMP_pressure;BME280_temperature;BME280_humidity;BME280_pressure;Samples;Min_cycle;Max_cycle;Signal;HPM_P1;HPM_P2
2022/12/22 03:28:20;;;;;;;103.90;42.95;;;;;;;;;;5052949;28;20045;-80
2022/12/22 03:31:05;;;;;;;109.20;42.97;;;;;;;;;;5058506;28;20041;-79
2022/12/22 03:33:50;;;;;;;116.55;46.70;;;;;;;;;;5053990;28;20041;-79
2022/12/22 03:36:36;;;;;;;116.82;44.72;;;;;;;;;;5056458;28;20413;-83
2022/12/22 03:39:21;;;;;;;111.10;44.38;;;;;;;;;;5056128;28;20041;-79
2022/12/22 03:48:18;;;;;;;107.57;45.40;;;;;;;;;;5056165;28;20475;-79
2022/12/22 03:51:04;;;;;;;109.40;44.95;;;;;;;;;;5055978;28;20044;-79
2022/12/22 03:53:49;;;;;;;110.35;45.83;;;;;;;;;;5056058;28;20041;-79
2022/12/22 03:56:34;;;;;;;128.15;51.85;;;;;;;;;;5055083;28;20049;-82
2022/12/22 03:59:19;;;;;;;119.43;49.53;;;;;;;;;;5061349;28;20037;-81
2022/12/22 04:02:05;;;;;;;121.63;48.15;;;;;;;;;;5056345;28;20049;-81
2022/12/22 04:04:50;;;;;;;110.50;46.55;;;;;;;;;;5055167;28;20041;-84
2022/12/22 04:07:36;;;;;;;119.28;50.00;;;;;;;;;;5056117;28;20390;-81
2022/12/22 04:13:25;;;;;;;121.43;46.97;;;;;;;;;;5055763;28;20041;-83
2022/12/22 04:16:11;;;;;;;108.53;47.47;;;;;;;;;;5056225;28;20044;-84
2022/12/22 04:18:56;;;;;;;111.30;45.67;;;;;;;;;;5062150;28;20482;-84
2022/12/22 04:21:43;;;;;;;133.93;52.47;;;;;;;;;;5056190;28;20479;-81
2022/12/22 04:24:28;;;;;;;146.73;60.35;;;;;;;;;;5055572;28;20049;-81
2022/12/22 04:27:14;;;;;;;141.18;58.42;;;;;;;;;;5055531;28;20045;-81
2022/12/22 04:29:59;;;;;;;164.98;68.95;;;;;;;;;;5054705;28;20044;-81
2022/12/22 04:32:44;;;;;;;119.82;51.53;;;;;;;;;;5055688;28;20041;-81
2022/12/22 04:35:30;;;;;;;112.95;48.03;;;;;;;;;;5055395;28;20049;-84
2022/12/22 04:38:15;;;;;;;119.55;46.70;;;;;;;;;;5055093;28;20033;-84
2022/12/22 04:41:02;;;;;;;120.18;48.47;;;;;;;;;;5055225;28;20049;-81
2022/12/22 04:43:48;;;;;;;138.27;56.70;;;;;;;;;;5055156;28;20049;-85
2022/12/22 04:46:33;;;;;;;132.93;52.95;;;;;;;;;;5054791;28;20036;-85
2022/12/22 04:49:19;;;;;;;108.03;47.17;;;;;;;;;;5065237;28;20041;-84
2022/12/22 04:52:04;;;;;;;128.30;52.13;;;;;;;;;;5077391;28;20049;-84
2022/12/22 04:54:50;;;;;;;132.98;51.15;;;;;;;;;;5068003;28;20041;-80
2022/12/22 04:57:36;;;;;;;125.75;51.65;;;;;;;;;;5054709;28;20049;-84
2022/12/22 05:00:21;;;;;;;127.53;50.78;;;;;;;;;;5054939;28;20045;-79
2022/12/22 05:03:07;;;;;;;147.05;58.63;;;;;;;;;;5055119;28;20045;-80
2022/12/22 05:05:53;;;;;;;145.90;59.25;;;;;;;;;;5055213;28;20044;-81
2022/12/22 05:08:40;;;;;;;149.05;60.58;;;;;;;;;;5055266;28;20485;-84
2022/12/22 05:11:28;;;;;;;163.13;71.88;;;;;;;;;;5053241;28;20037;-81
2022/12/22 05:14:14;;;;;;;192.55;83.72;;;;;;;;;;5058294;28;20045;-80
2022/12/22 05:17:00;;;;;;;199.68;87.65;;;;;;;;;;5052583;28;20049;-84
2022/12/22 05:19:45;;;;;;;192.32;81.70;;;;;;;;;;5058196;28;20045;-81
2022/12/22 05:22:30;;;;;;;178.75;76.38;;;;;;;;;;5058429;28;20041;-81
2022/12/22 05:25:16;;;;;;;149.20;61.63;;;;;;;;;;5053510;28;20045;-85
2022/12/22 05:28:01;;;;;;;141.82;58.88;;;;;;;;;;5053524;28;20085;-85
2022/12/22 05:30:47;;;;;;;146.88;56.45;;;;;;;;;;5057577;28;20371;-85
2022/12/22 05:33:32;;;;;;;133.52;53.20;;;;;;;;;;5058393;28;20037;-81
2022/12/22 05:36:18;;;;;;;122.38;48.50;;;;;;;;;;5052688;28;20406;-81
2022/12/22 05:39:03;;;;;;;112.93;45.17;;;;;;;;;;5053953;28;20032;-84
2022/12/22 05:41:49;;;;;;;119.38;45.15;;;;;;;;;;5054327;28;20045;-85
2022/12/22 05:44:35;;;;;;;119.00;44.58;;;;;;;;;;5053280;28;20045;-80
2022/12/22 05:47:20;;;;;;;123.25;48.63;;;;;;;;;;5054005;28;20422;-80
2022/12/22 05:50:07;;;;;;;138.98;47.50;;;;;;;;;;5053923;28;20041;-84
2022/12/22 05:52:53;;;;;;;135.18;53.10;;;;;;;;;;5059489;28;20044;-85
2022/12/22 05:55:38;;;;;;;151.82;54.13;;;;;;;;;;5053194;28;20045;-85
2022/12/22 05:58:23;;;;;;;184.95;66.03;;;;;;;;;;5053829;28;20506;-85
2022/12/22 06:01:09;;;;;;;163.60;58.47;;;;;;;;;;5053859;28;20041;-80
2022/12/22 06:03:54;;;;;;;166.25;57.58;;;;;;;;;;5053598;28;20049;-81
2022/12/22 06:06:39;;;;;;;171.50;60.13;;;;;;;;;;5053445;28;20046;-79
2022/12/22 06:09:25;;;;;;;127.88;48.65;;;;;;;;;;5053381;28;20048;-85
2022/12/22 06:12:10;;;;;;;133.38;50.17;;;;;;;;;;5053530;28;20037;-83
2022/12/22 06:14:56;;;;;;;127.18;48.67;;;;;;;;;;5053729;28;20037;-79
2022/12/22 06:17:41;;;;;;;133.70;52.90;;;;;;;;;;5052621;28;20036;-83
2022/12/22 06:20:26;;;;;;;134.43;49.03;;;;;;;;;;5052098;28;20045;-79
2022/12/22 06:23:12;;;;;;;137.18;52.88;;;;;;;;;;5052452;28;20045;-84
2022/12/22 06:26:00;;;;;;;137.00;53.78;;;;;;;;;;5053852;28;20498;-86
2022/12/22 06:28:47;;;;;;;144.57;51.75;;;;;;;;;;5053150;28;20041;-85
2022/12/22 06:31:33;;;;;;;124.80;47.13;;;;;;;;;;5053204;28;20041;-80
2022/12/22 06:34:18;;;;;;;134.38;46.60;;;;;;;;;;5053424;28;20037;-80
2022/12/22 06:37:03;;;;;;;117.88;45.47;;;;;;;;;;5053215;28;20494;-80
2022/12/22 06:39:49;;;;;;;130.88;45.78;;;;;;;;;;5053348;28;20036;-79
2022/12/22 06:45:40;;;;;;;137.80;50.58;;;;;;;;;;5053058;28;20486;-83
2022/12/22 06:48:26;;;;;;;121.05;47.78;;;;;;;;;;5053091;28;20372;-80
2022/12/22 06:51:11;;;;;;;119.82;43.63;;;;;;;;;;5053543;28;20045;-79
2022/12/22 06:53:57;;;;;;;164.93;63.92;;;;;;;;;;5044952;28;20029;-83
2022/12/22 06:56:43;;;;;;;191.43;84.90;;;;;;;;;;5053505;28;20363;-86
2022/12/22 06:59:28;;;;;;;231.70;100.78;;;;;;;;;;5053444;28;20476;-87
2022/12/22 07:02:13;;;;;;;211.27;93.13;;;;;;;;;;5044670;28;20040;-81
2022/12/22 07:04:58;;;;;;;197.02;85.53;;;;;;;;;;5053010;28;20050;-86
2022/12/22 07:07:44;;;;;;;212.35;93.35;;;;;;;;;;5079052;28;20025;-81
2022/12/22 07:13:34;;;;;;;196.20;86.32;;;;;;;;;;5059409;28;20036;-82
2022/12/22 07:16:20;;;;;;;224.68;96.85;;;;;;;;;;5056573;28;20045;-82
2022/12/22 07:19:05;;;;;;;256.42;104.63;;;;;;;;;;5056281;28;20048;-86
2022/12/22 07:22:04;;;;;;;238.55;104.00;;;;;;;;;;5056828;28;20057;-88
2022/12/22 07:24:50;;;;;;;237.93;107.00;;;;;;;;;;5055630;28;20044;-86
2022/12/22 07:27:35;;;;;;;246.00;119.85;;;;;;;;;;5055430;28;20052;-81
2022/12/22 07:30:21;;;;;;;265.63;123.45;;;;;;;;;;5056543;28;20371;-86
2022/12/22 07:33:06;;;;;;;240.77;120.60;;;;;;;;;;5056660;28;20050;-82
2022/12/22 07:36:19;;;;;;;232.18;116.18;;;;;;;;;;5056558;28;20045;-81
2022/12/22 07:39:04;;;;;;;240.60;118.40;;;;;;;;;;5062176;28;20041;-86
2022/12/22 07:44:53;;;;;;;254.02;120.90;;;;;;;;;;5061924;28;20053;-88
2022/12/22 07:47:42;;;;;;;257.63;125.50;;;;;;;;;;5055599;28;20398;-82
2022/12/22 07:50:28;;;;;;;289.98;132.98;;;;;;;;;;5056343;28;20398;-85
2022/12/22 07:53:13;;;;;;;303.70;143.23;;;;;;;;;;5056363;28;20036;-85
2022/12/22 07:56:04;;;;;;;336.38;165.18;;;;;;;;;;5056190;28;20044;-80
2022/12/22 07:58:49;;;;;;;299.60;147.32;;;;;;;;;;5062007;28;20037;-80
2022/12/22 08:01:34;;;;;;;294.60;143.80;;;;;;;;;;5055806;28;20041;-80
2022/12/22 08:04:21;;;;;;;267.92;126.10;;;;;;;;;;5055565;28;20057;-85
2022/12/22 08:07:06;;;;;;;264.63;118.75;;;;;;;;;;5054707;28;20487;-84
2022/12/22 08:09:51;;;;;;;224.45;108.95;;;;;;;;;;5055044;28;20363;-81
2022/12/22 08:12:37;;;;;;;206.95;104.30;;;;;;;;;;5055757;28;20045;-82
2022/12/22 08:15:22;;;;;;;233.63;109.22;;;;;;;;;;5055581;28;20044;-81
2022/12/22 08:18:07;;;;;;;203.02;89.55;;;;;;;;;;5054672;28;20414;-78
2022/12/22 08:20:53;;;;;;;189.25;89.22;;;;;;;;;;5054954;28;20048;-81
2022/12/22 08:23:38;;;;;;;186.25;89.00;;;;;;;;;;5062236;28;20045;-79
2022/12/22 08:26:33;;;;;;;173.55;80.10;;;;;;;;;;5055773;28;20037;-84
2022/12/22 08:29:26;;;;;;;170.70;73.85;;;;;;;;;;5055086;28;20048;-81
2022/12/22 08:32:12;;;;;;;178.50;78.97;;;;;;;;;;5046955;28;20045;-78
2022/12/22 08:34:57;;;;;;;163.88;66.82;;;;;;;;;;5047174;28;20041;-82
2022/12/22 08:37:45;;;;;;;167.70;78.25;;;;;;;;;;5056491;28;20041;-84
2022/12/22 08:40:35;;;;;;;174.35;81.30;;;;;;;;;;5056915;28;20040;-79
2022/12/22 08:47:40;;;;;;;135.70;59.55;;;;;;;;;;5061793;28;20037;-85
2022/12/22 08:50:25;;;;;;;95.93;45.28;;;;;;;;;;5060837;28;20414;-81
2022/12/22 08:53:10;;;;;;;130.38;58.55;;;;;;;;;;5055014;28;20036;-83
2022/12/22 08:55:56;;;;;;;163.18;69.25;;;;;;;;;;5055206;28;20041;-80
2022/12/22 08:58:41;;;;;;;148.52;68.55;;;;;;;;;;5059267;28;20048;-81
2022/12/22 09:02:05;;;;;;;138.43;56.20;;;;;;;;;;5055534;28;20048;-88
2022/12/22 09:08:08;;;;;;;135.77;58.55;;;;;;;;;;5054731;28;20509;-88
2022/12/22 09:10:57;;;;;;;133.75;57.38;;;;;;;;;;5046589;28;20041;-88
2022/12/22 09:13:53;;;;;;;101.97;46.17;;;;;;;;;;5054356;28;20420;-85
2022/12/22 09:16:46;;;;;;;118.82;51.65;;;;;;;;;;5060394;28;20044;-84
2022/12/22 09:19:39;;;;;;;123.72;59.30;;;;;;;;;;5053338;28;20041;-84
2022/12/22 09:22:29;;;;;;;103.65;49.58;;;;;;;;;;5070778;28;20033;-85
2022/12/22 09:25:17;;;;;;;101.00;45.78;;;;;;;;;;5082084;28;20041;-88
2022/12/22 09:28:17;;;;;;;74.65;35.17;;;;;;;;;;5059094;28;20045;-87
2022/12/22 09:31:06;;;;;;;87.70;38.17;;;;;;;;;;5054478;28;20474;-89
2022/12/22 09:34:06;;;;;;;78.78;38.90;;;;;;;;;;5053325;28;20044;-88
2022/12/22 09:36:52;;;;;;;86.40;39.53;;;;;;;;;;5053305;28;20040;-84
2022/12/22 09:39:43;;;;;;;83.07;39.47;;;;;;;;;;5054454;28;20041;-84
2022/12/22 09:42:39;;;;;;;78.30;37.80;;;;;;;;;;5054243;28;20048;-84
2022/12/22 09:45:49;;;;;;;74.97;36.20;;;;;;;;;;5054680;28;20056;-84
2022/12/22 09:48:42;;;;;;;81.75;38.90;;;;;;;;;;5059567;28;20049;-84
2022/12/22 09:51:28;;;;;;;133.30;60.03;;;;;;;;;;5059699;28;20045;-84
2022/12/22 09:54:19;;;;;;;104.13;43.83;;;;;;;;;;5053098;28;20049;-86
2022/12/22 09:57:10;;;;;;;97.30;46.88;;;;;;;;;;5053284;28;20067;-87
2022/12/22 10:00:47;;;;;;;;;;;;;;;;;;5026052;28;20447;-88
2022/12/22 10:03:57;;;;;;;66.18;31.70;;;;;;;;;;5051093;28;19924;-85
2022/12/22 10:07:05;;;;;;;41.80;20.05;;;;;;;;;;5051095;28;20041;-84
2022/12/22 10:10:08;;;;;;;48.13;24.15;;;;;;;;;;5045255;28;20049;-88
2022/12/22 10:13:25;;;;;;;61.88;33.40;;;;;;;;;;5044808;28;20045;-85
2022/12/22 10:16:27;;;;;;;38.70;21.25;;;;;;;;;;5044683;28;20048;-88
2022/12/22 10:19:21;;;;;;;44.70;22.67;;;;;;;;;;5045375;28;20040;-90
2022/12/22 10:22:35;;;;;;;44.70;23.55;;;;;;;;;;5045931;28;20045;-88
2022/12/22 10:25:49;;;;;;;44.83;23.20;;;;;;;;;;5060222;28;20045;-88
2022/12/22 10:28:45;;;;;;;40.78;23.35;;;;;;;;;;5059523;28;20040;-88
2022/12/22 10:31:55;;;;;;;45.88;24.58;;;;;;;;;;5053582;28;20037;-85
2022/12/22 10:35:12;;;;;;;48.75;26.35;;;;;;;;;;5066778;28;20048;-87
2022/12/22 10:38:17;;;;;;;57.33;28.90;;;;;;;;;;5045034;28;20044;-86
2022/12/22 10:41:04;;;;;;;66.82;31.90;;;;;;;;;;5053716;28;20133;-87
2022/12/22 10:43:57;;;;;;;66.13;32.47;;;;;;;;;;5057032;28;20048;-87
2022/12/22 10:46:47;;;;;;;71.25;35.20;;;;;;;;;;5063377;28;20036;-87
2022/12/22 10:49:39;;;;;;;68.97;33.50;;;;;;;;;;5057101;28;20045;-85
2022/12/22 10:52:31;;;;;;;68.07;35.63;;;;;;;;;;5060910;28;20037;-85
2022/12/22 10:55:24;;;;;;;81.43;41.38;;;;;;;;;;5072326;28;20048;-87
2022/12/22 10:58:10;;;;;;;74.82;35.78;;;;;;;;;;5057847;28;20053;-85
2022/12/22 11:01:06;;;;;;;77.03;40.58;;;;;;;;;;5062975;28;20041;-84
2022/12/22 11:04:13;;;;;;;71.78;35.78;;;;;;;;;;5051304;28;20037;-86
2022/12/22 11:07:12;;;;;;;87.05;42.80;;;;;;;;;;5051448;28;20037;-85
2022/12/22 11:10:07;;;;;;;79.70;39.67;;;;;;;;;;5063501;28;20394;-87
2022/12/22 11:13:28;;;;;;;86.43;40.83;;;;;;;;;;5049022;28;20048;-88
2022/12/22 11:16:23;;;;;;;51.58;24.80;;;;;;;;;;5055987;28;20045;-83
2022/12/22 11:19:42;;;;;;;45.05;22.67;;;;;;;;;;5055504;28;20041;-83
2022/12/22 11:22:36;;;;;;;52.95;27.25;;;;;;;;;;5052197;28;20049;-86
2022/12/22 11:25:55;;;;;;;;;;;;;;;;;;5062601;28;20398;-86
2022/12/22 11:28:50;;;;;;;53.85;26.38;;;;;;;;;;5030915;28;19912;-88
2022/12/22 11:31:45;;;;;;;51.22;25.63;;;;;;;;;;5061511;28;20056;-84
2022/12/22 11:34:45;;;;;;;56.22;28.33;;;;;;;;;;5056255;28;20037;-87
2022/12/22 11:37:42;;;;;;;57.42;29.98;;;;;;;;;;5058508;28;20045;-85
2022/12/22 11:40:35;;;;;;;67.95;34.20;;;;;;;;;;5080116;28;20033;-84
2022/12/22 11:43:27;;;;;;;126.60;57.92;;;;;;;;;;5063354;28;20049;-86
2022/12/22 11:46:21;;;;;;;80.07;39.65;;;;;;;;;;5061825;28;20037;-84
2022/12/22 11:49:16;;;;;;;88.80;39.90;;;;;;;;;;5056244;28;20041;-84
2022/12/22 11:52:34;;;;;;;60.50;32.20;;;;;;;;;;5055487;28;20049;-84
2022/12/22 11:55:39;;;;;;;72.35;39.17;;;;;;;;;;5046445;28;20056;-86
2022/12/22 11:58:30;;;;;;;84.28;36.00;;;;;;;;;;5055718;28;20049;-83
2022/12/22 12:01:25;;;;;;;166.27;64.22;;;;;;;;;;5061943;28;20049;-86
2022/12/22 12:04:32;;;;;;;107.45;47.05;;;;;;;;;;5056706;28;20040;-87
2022/12/22 12:07:28;;;;;;;70.13;35.03;;;;;;;;;;5061347;28;20049;-86
2022/12/22 12:10:25;;;;;;;56.42;31.55;;;;;;;;;;5055214;28;20297;-84
2022/12/22 12:13:37;;;;;;;71.28;33.42;;;;;;;;;;5061449;28;20045;-84
2022/12/22 12:16:53;;;;;;;67.45;33.20;;;;;;;;;;5062741;28;20037;-88
2022/12/22 12:19:47;;;;;;;59.55;31.92;;;;;;;;;;5063294;28;20037;-85
2022/12/22 12:22:50;;;;;;;59.70;30.42;;;;;;;;;;5065974;28;20040;-86
2022/12/22 12:25:54;;;;;;;57.83;29.42;;;;;;;;;;5067563;28;20053;-83
2022/12/22 12:29:27;;;;;;;56.55;30.05;;;;;;;;;;5056577;28;20037;-88
2022/12/22 12:32:33;;;;;;;54.72;29.63;;;;;;;;;;5021477;28;20053;-88
2022/12/22 12:35:22;;;;;;;;;;;;;;;;;;5062119;28;20049;-86
2022/12/22 12:38:16;;;;;;;56.28;29.25;;;;;;;;;;5056575;28;19912;-88
2022/12/22 12:41:23;;;;;;;53.35;28.80;;;;;;;;;;5057673;28;20045;-85
2022/12/22 12:44:13;;;;;;;62.08;30.42;;;;;;;;;;5064748;28;20470;-85
2022/12/22 12:47:28;;;;;;;50.85;27.42;;;;;;;;;;5054653;28;20498;-87
2022/12/22 12:50:33;;;;;;;52.35;28.15;;;;;;;;;;5055343;28;20045;-85
2022/12/22 12:53:22;;;;;;;49.30;26.98;;;;;;;;;;5057355;28;20394;-87
2022/12/22 12:56:08;;;;;;;51.83;28.77;;;;;;;;;;5064362;28;20471;-88
2022/12/22 12:58:56;;;;;;;61.85;29.73;;;;;;;;;;5065054;28;20045;-86
2022/12/22 13:01:42;;;;;;;85.75;37.45;;;;;;;;;;5046775;28;20041;-88
2022/12/22 13:05:02;;;;;;;90.70;44.83;;;;;;;;;;5064520;28;20494;-86
2022/12/22 13:08:13;;;;;;;55.97;31.98;;;;;;;;;;5065265;28;20044;-84
2022/12/22 13:10:58;;;;;;;56.78;30.65;;;;;;;;;;5064789;28;20037;-87
2022/12/22 13:13:46;;;;;;;41.33;25.63;;;;;;;;;;5066368;28;20041;-85
2022/12/22 13:16:35;;;;;;;55.97;27.77;;;;;;;;;;5060610;28;20383;-85
2022/12/22 13:19:23;;;;;;;57.85;34.42;;;;;;;;;;5062588;28;20041;-87
2022/12/22 13:22:08;;;;;;;59.22;28.20;;;;;;;;;;5054890;28;20053;-87
2022/12/22 13:24:55;;;;;;;52.90;27.92;;;;;;;;;;5061166;28;20044;-85
2022/12/22 13:27:40;;;;;;;76.88;38.85;;;;;;;;;;5060445;28;20045;-85
2022/12/22 13:30:29;;;;;;;62.03;32.08;;;;;;;;;;5060735;28;20036;-84
2022/12/22 13:33:22;;;;;;;75.35;39.83;;;;;;;;;;5055850;28;20048;-85
2022/12/22 13:36:19;;;;;;;75.63;36.65;;;;;;;;;;5061095;28;20045;-86
2022/12/22 13:39:11;;;;;;;59.53;30.23;;;;;;;;;;5057954;28;20044;-84
2022/12/22 13:41:57;;;;;;;69.63;31.67;;;;;;;;;;5065277;28;20048;-85
2022/12/22 13:44:43;;;;;;;66.10;32.20;;;;;;;;;;5060319;28;20078;-85
2022/12/22 13:47:28;;;;;;;66.68;32.42;;;;;;;;;;5060286;28;20044;-85
2022/12/22 13:50:27;;;;;;;70.97;31.92;;;;;;;;;;5079078;28;20029;-88
2022/12/22 13:53:18;;;;;;;85.13;41.17;;;;;;;;;;5070619;28;20045;-87
2022/12/22 13:56:14;;;;;;;106.63;48.08;;;;;;;;;;5051820;28;20044;-85
2022/12/22 13:59:01;;;;;;;113.60;51.45;;;;;;;;;;5055006;28;20036;-87
2022/12/22 14:02:00;;;;;;;109.13;49.05;;;;;;;;;;5060856;28;20037;-87
2022/12/22 14:05:22;;;;;;;;;;;;;;;;;;;;;
2022/12/22 14:08:21;;;;;;;142.15;69.70;;;;;;;;;;5059997;28;20052;-85
2022/12/22 14:11:10;;;;;;;95.18;46.95;;;;;;;;;;5045688;28;20486;-85
2022/12/22 14:13:58;;;;;;;93.15;44.92;;;;;;;;;;5064717;28;20045;-85
2022/12/22 14:16:47;;;;;;;87.28;41.55;;;;;;;;;;5059578;28;20045;-87
2022/12/22 14:19:35;;;;;;;92.47;41.47;;;;;;;;;;5060887;28;20049;-86
2022/12/22 14:22:42;;;;;;;77.40;40.08;;;;;;;;;;5055712;28;20398;-87
2022/12/22 14:25:35;;;;;;;77.85;40.53;;;;;;;;;;5052149;28;20048;-85
2022/12/22 14:28:27;;;;;;;86.85;43.22;;;;;;;;;;5048338;28;20498;-86
2022/12/22 14:31:18;;;;;;;156.07;64.78;;;;;;;;;;5061849;28;20037;-85
2022/12/22 14:34:06;;;;;;;151.25;77.47;;;;;;;;;;5054183;28;20470;-86
2022/12/22 14:36:52;;;;;;;152.23;75.35;;;;;;;;;;5053926;28;20053;-85
2022/12/22 14:39:41;;;;;;;184.10;90.13;;;;;;;;;;5057058;28;20049;-88
2022/12/22 14:42:33;;;;;;;224.13;104.30;;;;;;;;;;5060940;28;20417;-88
2022/12/22 14:45:18;;;;;;;209.80;104.40;;;;;;;;;;5059660;28;20044;-84
2022/12/22 14:48:11;;;;;;;237.35;114.05;;;;;;;;;;5054059;28;20044;-88
2022/12/22 14:50:57;;;;;;;214.20;112.80;;;;;;;;;;5059401;28;20516;-87
2022/12/22 14:53:55;;;;;;;291.50;138.00;;;;;;;;;;5044852;28;20054;-88
2022/12/22 14:56:48;;;;;;;214.73;109.78;;;;;;;;;;5053067;28;20053;-88
2022/12/22 14:59:34;;;;;;;181.05;89.38;;;;;;;;;;5052272;28;20486;-88
2022/12/22 15:02:38;;;;;;;150.70;73.38;;;;;;;;;;5059357;28;20041;-89
2022/12/22 15:05:52;;;;;;;121.25;57.65;;;;;;;;;;5060331;28;20045;-89
2022/12/22 15:08:53;;;;;;;116.93;55.08;;;;;;;;;;5059537;28;20049;-87
2022/12/22 15:11:46;;;;;;;134.23;59.58;;;;;;;;;;5067478;28;20045;-86
2022/12/22 15:14:42;;;;;;;136.73;62.58;;;;;;;;;;5052164;28;20045;-87
2022/12/22 15:17:40;;;;;;;243.52;124.78;;;;;;;;;;5050935;28;20044;-87
2022/12/22 15:20:28;;;;;;;286.10;137.82;;;;;;;;;;5048585;28;20033;-86
2022/12/22 15:23:22;;;;;;;218.57;107.70;;;;;;;;;;5064687;28;20049;-86
2022/12/22 15:26:10;;;;;;;199.02;101.70;;;;;;;;;;5063484;28;20386;-86
2022/12/22 15:29:13;;;;;;;184.98;93.97;;;;;;;;;;5063263;28;20049;-87
2022/12/22 15:32:01;;;;;;;;;;;;;;;;;;5065462;28;20036;-86
2022/12/22 15:34:49;;;;;;;150.18;76.45;;;;;;;;;;5051257;28;19912;-85
2022/12/22 15:37:35;;;;;;;151.75;74.38;;;;;;;;;;5064917;28;20487;-87
2022/12/22 15:40:22;;;;;;;158.32;78.28;;;;;;;;;;5064739;28;20060;-88
2022/12/22 15:43:08;;;;;;;164.20;83.10;;;;;;;;;;5057029;28;20041;-90
2022/12/22 15:45:56;;;;;;;207.90;101.57;;;;;;;;;;5051891;28;20048;-89
2022/12/22 15:48:42;;;;;;;204.63;94.72;;;;;;;;;;5068745;28;20041;-87
2022/12/22 15:51:29;;;;;;;174.40;87.28;;;;;;;;;;5072382;28;20053;-87
2022/12/22 15:54:42;;;;;;;216.57;105.10;;;;;;;;;;5069006;28;20394;-89
2022/12/22 15:57:31;;;;;;;210.30;103.15;;;;;;;;;;5066700;28;20053;-87
2022/12/22 16:00:17;;;;;;;208.95;103.65;;;;;;;;;;5058824;28;20045;-86
2022/12/22 16:03:07;;;;;;;192.65;94.90;;;;;;;;;;5066964;28;20057;-87
2022/12/22 16:05:53;;;;;;;206.07;103.40;;;;;;;;;;5073835;28;20045;-85
2022/12/22 16:08:41;;;;;;;182.25;94.00;;;;;;;;;;5062734;28;20045;-87
2022/12/22 16:11:26;;;;;;;196.85;101.88;;;;;;;;;;5062339;28;20044;-87
2022/12/22 16:14:14;;;;;;;202.57;101.45;;;;;;;;;;5062997;28;20481;-87
2022/12/22 16:17:00;;;;;;;201.43;105.78;;;;;;;;;;5066391;28;20037;-87
2022/12/22 16:19:45;;;;;;;214.40;105.60;;;;;;;;;;5061999;28;20044;-87
2022/12/22 16:22:35;;;;;;;218.23;109.40;;;;;;;;;;5055251;28;20045;-88
2022/12/22 16:25:26;;;;;;;215.65;113.43;;;;;;;;;;5061538;28;20053;-88
2022/12/22 16:28:19;;;;;;;248.57;126.22;;;;;;;;;;5054449;28;20049;-87
2022/12/22 16:31:15;;;;;;;257.77;134.65;;;;;;;;;;5060964;28;20033;-87
2022/12/22 16:34:04;;;;;;;317.08;163.00;;;;;;;;;;5048052;28;20379;-88
2022/12/22 16:36:50;;;;;;;274.02;134.18;;;;;;;;;;5054932;28;20478;-88
2022/12/22 16:39:35;;;;;;;236.48;120.25;;;;;;;;;;5055374;28;20402;-88
2022/12/22 16:42:21;;;;;;;266.77;134.00;;;;;;;;;;5056319;28;20049;-88
2022/12/22 16:45:15;;;;;;;236.93;121.93;;;;;;;;;;5057030;28;20160;-89
2022/12/22 16:48:06;;;;;;;275.50;143.90;;;;;;;;;;5042903;28;20045;-87
2022/12/22 16:50:51;;;;;;;272.85;143.40;;;;;;;;;;5054421;28;20036;-86
2022/12/22 16:53:36;;;;;;;209.98;108.88;;;;;;;;;;5060222;28;20049;-86
2022/12/22 16:56:25;;;;;;;229.70;120.47;;;;;;;;;;5060005;28;20060;-88
2022/12/22 16:59:10;;;;;;;232.38;121.75;;;;;;;;;;5062117;28;20041;-87
2022/12/22 17:01:56;;;;;;;203.00;97.22;;;;;;;;;;5047485;28;20048;-87
2022/12/22 17:04:41;;;;;;;195.15;97.00;;;;;;;;;;5055085;28;20052;-87
2022/12/22 17:07:31;;;;;;;223.40;109.88;;;;;;;;;;5053972;28;20048;-86
2022/12/22 17:10:19;;;;;;;218.23;110.07;;;;;;;;;;5055140;28;20045;-86
2022/12/22 17:13:04;;;;;;;205.80;104.88;;;;;;;;;;5040911;28;20037;-86
2022/12/22 17:15:53;;;;;;;208.82;105.47;;;;;;;;;;5062152;28;20057;-89
2022/12/22 17:18:39;;;;;;;209.27;101.70;;;;;;;;;;5060395;28;20045;-88
2022/12/22 17:21:25;;;;;;;193.57;98.93;;;;;;;;;;5060298;28;20482;-87
2022/12/22 17:24:13;;;;;;;215.40;107.38;;;;;;;;;;5061979;28;20033;-87
2022/12/22 17:27:08;;;;;;;224.55;109.25;;;;;;;;;;5055377;28;20053;-85
2022/12/22 17:29:59;;;;;;;245.27;114.25;;;;;;;;;;5062772;28;20037;-86
2022/12/22 17:32:44;;;;;;;278.60;134.75;;;;;;;;;;5047561;28;20045;-85
2022/12/22 17:35:32;;;;;;;280.42;140.52;;;;;;;;;;5055391;28;20044;-86
2022/12/22 17:38:21;;;;;;;276.75;142.30;;;;;;;;;;5058645;28;20044;-89
2022/12/22 17:41:12;;;;;;;292.40;145.80;;;;;;;;;;5060771;28;20410;-86
2022/12/22 17:44:19;;;;;;;291.63;143.73;;;;;;;;;;5056192;28;20064;-86
2022/12/22 17:47:04;;;;;;;298.70;153.23;;;;;;;;;;5047629;28;20049;-87
2022/12/22 17:49:50;;;;;;;306.75;160.77;;;;;;;;;;5059921;28;20037;-87
2022/12/22 17:52:35;;;;;;;294.50;156.43;;;;;;;;;;5045198;28;20041;-86
2022/12/22 17:55:24;;;;;;;298.95;153.10;;;;;;;;;;5052764;28;20049;-78
2022/12/22 17:58:14;;;;;;;303.60;152.18;;;;;;;;;;5053619;28;20049;-79
2022/12/22 18:00:59;;;;;;;267.45;139.57;;;;;;;;;;5059243;28;20033;-81
2022/12/22 18:03:44;;;;;;;454.13;236.13;;;;;;;;;;5053644;28;20482;-79
2022/12/22 18:06:33;;;;;;;391.33;192.02;;;;;;;;;;5053424;28;20040;-79
2022/12/22 18:09:23;;;;;;;342.20;172.00;;;;;;;;;;5060673;28;20037;-80
2022/12/22 18:12:15;;;;;;;330.92;167.57;;;;;;;;;;5053448;28;20375;-79
2022/12/22 18:15:01;;;;;;;322.05;162.52;;;;;;;;;;5057758;28;20053;-80
2022/12/22 18:17:46;;;;;;;315.08;158.30;;;;;;;;;;5067952;28;20041;-79
2022/12/22 18:20:32;;;;;;;305.08;160.55;;;;;;;;;;5053142;28;20049;-79
2022/12/22 18:23:24;;;;;;;301.92;155.43;;;;;;;;;;5053734;28;20041;-80
2022/12/22 18:26:17;;;;;;;303.17;158.27;;;;;;;;;;5053331;28;20457;-79
2022/12/22 18:29:03;;;;;;;311.27;162.27;;;;;;;;;;5053167;28;20040;-80
2022/12/22 18:31:48;;;;;;;297.52;140.45;;;;;;;;;;5053576;28;20041;-80
2022/12/22 18:34:37;;;;;;;295.25;146.63;;;;;;;;;;5053242;28;20064;-78
2022/12/22 18:37:22;;;;;;;274.15;134.65;;;;;;;;;;5053086;28;20049;-80
2022/12/22 18:40:37;;;;;;;341.33;163.38;;;;;;;;;;5053226;28;20037;-79
2022/12/22 18:43:23;;;;;;;385.65;197.57;;;;;;;;;;5052954;28;20390;-79
2022/12/22 18:46:10;;;;;;;370.38;197.57;;;;;;;;;;5052960;28;20045;-80
2022/12/22 18:48:59;;;;;;;377.40;197.02;;;;;;;;;;5053513;28;20044;-80
2022/12/22 18:51:46;;;;;;;392.13;194.77;;;;;;;;;;5052553;28;20037;-79
2022/12/22 18:54:35;;;;;;;398.88;208.98;;;;;;;;;;5052723;28;20041;-81
2022/12/22 18:57:21;;;;;;;366.23;192.07;;;;;;;;;;5052216;28;20045;-79
2022/12/22 19:00:14;;;;;;;327.75;172.75;;;;;;;;;;5053299;28;20048;-77
2022/12/22 19:03:20;;;;;;;305.55;162.25;;;;;;;;;;5053950;28;20041;-80
2022/12/22 19:06:08;;;;;;;;;;;;;;;;;;5057513;28;20498;-79
2022/12/22 19:08:53;;;;;;;307.02;153.68;;;;;;;;;;5056677;28;19914;-78
2022/12/22 19:11:38;;;;;;;335.48;170.68;;;;;;;;;;5057151;28;20088;-78
2022/12/22 19:14:24;;;;;;;339.90;173.57;;;;;;;;;;5055663;28;20041;-79
2022/12/22 19:17:19;;;;;;;367.50;195.75;;;;;;;;;;5062169;28;20064;-77
2022/12/22 19:20:09;;;;;;;359.52;194.15;;;;;;;;;;5056379;28;20042;-80
2022/12/22 19:22:54;;;;;;;335.83;172.52;;;;;;;;;;5056400;28;20470;-78
2022/12/22 19:25:41;;;;;;;345.70;178.32;;;;;;;;;;5056827;28;20041;-78
2022/12/22 19:28:41;;;;;;;363.33;187.98;;;;;;;;;;5055344;28;20037;-79
2022/12/22 19:31:29;;;;;;;377.98;198.85;;;;;;;;;;5056588;28;20045;-78
2022/12/22 19:34:18;;;;;;;378.42;191.43;;;;;;;;;;5061744;28;20045;-80
2022/12/22 19:37:03;;;;;;;328.95;159.65;;;;;;;;;;5062462;28;20037;-78
2022/12/22 19:39:49;;;;;;;301.83;150.40;;;;;;;;;;5062624;28;20045;-79
2022/12/22 19:42:34;;;;;;;272.83;137.70;;;;;;;;;;5055578;28;20048;-77
2022/12/22 19:45:24;;;;;;;135.02;60.92;;;;;;;;;;5055073;28;20045;-77
2022/12/22 19:48:18;;;;;;;157.27;75.03;;;;;;;;;;5062485;28;20053;-80
2022/12/22 19:51:03;;;;;;;183.57;89.65;;;;;;;;;;5055955;28;20037;-79
2022/12/22 19:53:49;;;;;;;207.80;107.43;;;;;;;;;;5063011;28;20052;-79
2022/12/22 19:56:35;;;;;;;221.40;116.63;;;;;;;;;;5056046;28;20371;-79
2022/12/22 19:59:30;;;;;;;255.48;126.15;;;;;;;;;;5063272;28;20378;-77
2022/12/22 20:02:25;;;;;;;246.85;129.57;;;;;;;;;;5062411;28;20403;-79
2022/12/22 20:05:22;;;;;;;273.73;138.32;;;;;;;;;;5055703;28;20037;-79
2022/12/22 20:08:08;;;;;;;257.27;134.82;;;;;;;;;;5056498;28;20053;-80
2022/12/22 20:10:54;;;;;;;236.25;124.88;;;;;;;;;;5055744;28;20033;-80
2022/12/22 20:13:40;;;;;;;226.13;118.95;;;;;;;;;;5055638;28;20041;-80
2022/12/22 20:16:26;;;;;;;267.48;132.77;;;;;;;;;;5054818;28;20398;-79